Time;durP1;ratioP1;P1;durP2;ratioP2;P2;SDS_P1;SDS_P2;PMS_P1;PMS_P2;Temp;Humidity;BMP_temperature;BMP_pressure;BME280_temperature;BME280_humidity;BME280_pressure;Samples;Min_cycle;Max_cycle;Signal;HPM_P1;HPM_P2
2022/07/23 00:01:28;;;;;;;1999.90;999.90;;;;;;;27.96;43.35;95444.09;5054367;28;20485;-65
2022/07/23 00:03:54;;;;;;;1999.90;999.90;;;;;;;27.78;42.89;95424.38;5048656;28;20017;-65
2022/07/23 00:06:20;;;;;;;1999.90;999.90;;;;;;;27.79;43.32;95454.03;5067034;28;20032;-66
2022/07/23 00:08:46;;;;;;;1999.90;999.90;;;;;;;27.70;43.20;95427.22;5072375;28;20028;-65
2022/07/23 00:11:11;;;;;;;1999.90;999.90;;;;;;;27.68;43.09;95431.47;5055455;28;20024;-66
2022/07/23 00:13:36;;;;;;;1999.90;999.90;;;;;;;27.55;43.20;95422.28;5052981;28;20032;-65
2022/07/23 00:16:02;;;;;;;1999.90;999.90;;;;;;;27.48;43.16;95414.91;5072503;28;20024;-65
2022/07/23 00:18:27;;;;;;;1999.90;999.90;;;;;;;27.24;43.49;95429.63;5072156;28;20473;-65
2022/07/23 00:20:53;;;;;;;1999.90;999.90;;;;;;;27.17;43.43;95414.81;5053329;28;20108;-65
2022/07/23 00:23:18;;;;;;;1999.90;999.90;;;;;;;27.45;43.20;95446.56;5054356;28;20115;-65
2022/07/23 00:25:45;;;;;;;1999.90;999.90;;;;;;;27.27;43.08;95440.50;5072010;28;20039;-64
2022/07/23 00:28:10;;;;;;;1999.90;999.90;;;;;;;26.23;45.94;95470.41;5071776;28;20032;-65
2022/07/23 00:30:37;;;;;;;1999.90;999.90;;;;;;;25.79;46.39;95422.69;5069042;28;20131;-67
2022/07/23 00:33:05;;;;;;;1999.90;999.90;;;;;;;26.40;46.11;95464.06;5070806;28;20543;-64
2022/07/23 00:35:34;;;;;;;1999.90;999.90;;;;;;;26.93;44.62;95454.81;5070239;28;20067;-64
2022/07/23 00:38:00;;;;;;;1999.90;999.90;;;;;;;27.12;44.38;95460.91;5068372;28;20528;-66
2022/07/23 00:40:26;;;;;;;1999.90;999.90;;;;;;;26.58;44.98;95461.28;5071330;28;20032;-67
2022/07/23 00:42:52;;;;;;;1999.90;999.90;;;;;;;26.75;44.53;95442.47;5054091;28;20066;-67
2022/07/23 00:45:18;;;;;;;1999.90;999.90;;;;;;;26.99;44.22;95473.50;5069446;28;20155;-66
2022/07/23 00:47:43;;;;;;;1999.90;999.90;;;;;;;26.77;44.51;95462.72;5072433;28;20043;-66
2022/07/23 00:50:09;;;;;;;1999.90;999.90;;;;;;;27.27;44.29;95489.66;5070357;28;20024;-66
2022/07/23 00:52:36;;;;;;;1999.90;999.90;;;;;;;27.44;43.68;95494.19;5070972;28;20063;-65
2022/07/23 00:55:03;;;;;;;1999.90;999.90;;;;;;;27.47;43.81;95473.47;5070565;28;20071;-65
2022/07/23 00:57:29;;;;;;;1999.90;999.90;;;;;;;27.53;42.86;95473.81;5072002;28;20025;-64
2022/07/23 00:59:54;;;;;;;1999.90;999.90;;;;;;;27.56;43.05;95497.59;5054185;28;20031;-64
2022/07/23 01:02:19;;;;;;;1999.90;999.90;;;;;;;27.38;42.90;95489.56;5070774;28;20061;-65
2022/07/23 01:04:45;;;;;;;1999.90;999.90;;;;;;;26.71;44.87;95535.25;5052446;28;20020;-65
2022/07/23 01:07:10;;;;;;;1999.90;999.90;;;;;;;26.22;46.94;95572.47;5071715;28;20050;-65
2022/07/23 01:09:37;;;;;;;1999.90;999.90;;;;;;;26.33;47.10;95554.13;5071272;28;20158;-64
2022/07/23 01:12:03;;;;;;;1999.90;999.90;;;;;;;26.35;47.51;95598.13;5071681;28;20035;-65
2022/07/23 01:14:28;;;;;;;1999.90;999.90;;;;;;;25.90;48.24;95599.81;5069745;28;20021;-65
2022/07/23 01:16:54;;;;;;;1999.90;999.90;;;;;;;25.69;48.88;95627.81;5070756;28;20029;-66
2022/07/23 01:19:19;;;;;;;1999.90;999.90;;;;;;;25.00;47.76;95598.16;5070301;28;20020;-65
2022/07/23 01:21:48;;;;;;;1999.90;999.90;;;;;;;25.25;47.97;95661.63;5070896;28;20020;-65
2022/07/23 01:24:13;;;;;;;1999.90;999.90;;;;;;;23.89;48.61;95683.81;5070469;28;20025;-66
2022/07/23 01:26:44;;;;;;;1999.90;999.90;;;;;;;22.77;52.01;95700.84;5069683;28;20036;-66
2022/07/23 01:29:10;;;;;;;1999.90;999.90;;;;;;;21.81;55.64;95677.78;5071223;28;20032;-65
2022/07/23 01:31:35;;;;;;;1999.90;999.90;;;;;;;21.23;57.77;95738.22;5052686;28;20025;-64
2022/07/23 01:34:01;;;;;;;1999.90;999.90;;;;;;;20.62;59.70;95730.00;5070138;28;20036;-63
2022/07/23 01:36:27;;;;;;;1999.90;999.90;;;;;;;19.92;64.60;95701.03;5052411;28;20120;-64
2022/07/23 01:38:53;;;;;;;1999.90;999.90;;;;;;;19.79;71.60;95676.03;5053493;28;20377;-65
2022/07/23 01:41:19;;;;;;;1999.90;999.90;;;;;;;18.68;76.03;95603.13;5051619;28;20024;-64
2022/07/23 01:43:44;;;;;;;1999.90;999.90;;;;;;;18.82;79.04;95642.34;5070939;28;20085;-64
2022/07/23 01:46:10;;;;;;;1999.90;999.90;;;;;;;18.43;79.45;95585.47;5069289;28;20036;-64
2022/07/23 01:48:35;;;;;;;1999.90;999.90;;;;;;;18.34;80.66;95577.53;5068990;28;20111;-63
2022/07/23 01:51:00;;;;;;;1999.90;999.90;;;;;;;19.08;80.15;95623.78;5051418;28;20488;-63
2022/07/23 01:53:26;;;;;;;1999.90;999.90;;;;;;;19.11;80.47;95620.41;5052412;28;20082;-64
2022/07/23 01:55:51;;;;;;;1999.90;999.90;;;;;;;18.53;81.25;95541.06;5044794;28;20470;-64
2022/07/23 01:58:16;;;;;;;1999.90;999.90;;;;;;;18.50;81.80;95512.13;5050574;28;20029;-65
2022/07/23 02:00:42;;;;;;;1999.90;999.90;;;;;;;18.77;81.07;95565.22;5051828;28;20022;-64
2022/07/23 02:03:07;;;;;;;1999.90;999.90;;;;;;;18.81;80.58;95532.97;5067545;28;20090;-65
2022/07/23 02:05:33;;;;;;;1999.90;999.90;;;;;;;18.94;81.00;95577.59;5051379;28;20037;-64
2022/07/23 02:08:00;;;;;;;1999.90;999.90;;;;;;;19.08;82.68;95614.91;5070551;28;20376;-64
2022/07/23 02:10:28;;;;;;;1999.90;999.90;;;;;;;18.21;81.26;95497.91;5069183;28;20036;-64
2022/07/23 02:12:53;;;;;;;1999.90;999.90;;;;;;;18.42;80.99;95508.44;5052426;28;20032;-64
2022/07/23 02:15:19;;;;;;;1999.90;999.90;;;;;;;18.14;83.10;95468.09;5069066;28;20021;-64
2022/07/23 02:17:45;;;;;;;1999.90;999.90;;;;;;;18.04;82.35;95445.16;5069597;28;20111;-64
2022/07/23 02:20:11;;;;;;;1999.90;999.90;;;;;;;18.25;84.71;95493.41;5069737;28;20119;-64
2022/07/23 02:22:37;;;;;;;1999.90;999.90;;;;;;;18.69;86.08;95569.66;5069679;28;20052;-64
2022/07/23 02:25:04;;;;;;;1999.90;999.90;;;;;;;17.71;86.21;95460.72;5068345;28;20101;-63
2022/07/23 02:27:29;;;;;;;1999.90;999.90;;;;;;;18.27;87.62;95554.97;5069646;28;20040;-64
2022/07/23 02:29:55;;;;;;;1999.90;999.90;;;;;;;18.03;87.96;95457.06;5069864;28;20111;-64
2022/07/23 02:32:23;;;;;;;1999.90;999.90;;;;;;;18.41;87.62;95518.44;5050339;28;20354;-65
2022/07/23 02:34:48;;;;;;;1999.90;999.90;;;;;;;18.75;87.27;95505.50;5069781;28;20056;-65
2022/07/23 02:37:14;;;;;;;1999.90;999.90;;;;;;;19.07;86.26;95510.88;5069137;28;20062;-65
2022/07/23 02:39:40;;;;;;;1999.90;999.90;;;;;;;19.50;85.96;95515.38;5051637;28;20028;-65
2022/07/23 02:42:05;;;;;;;1999.90;999.90;;;;;;;19.10;85.00;95529.06;5069049;28;20480;-65
2022/07/23 02:44:31;;;;;;;1999.90;999.90;;;;;;;18.69;86.59;95494.19;5069244;28;20070;-65
2022/07/23 02:46:57;;;;;;;1999.90;999.90;;;;;;;17.79;86.45;95365.66;5048962;28;20552;-65
2022/07/23 02:49:22;;;;;;;1999.90;999.90;;;;;;;18.88;86.52;95552.00;5070199;28;20116;-65
2022/07/23 02:51:48;;;;;;;1999.90;999.90;;;;;;;18.00;86.05;95403.91;5069371;28;20029;-66
2022/07/23 02:54:13;;;;;;;1999.90;999.90;;;;;;;18.25;85.89;95430.69;5070045;28;20017;-65
2022/07/23 02:56:39;;;;;;;1999.90;999.90;;;;;;;18.59;85.72;95443.50;5068267;28;20097;-67
2022/07/23 02:59:04;;;;;;;1999.90;999.90;;;;;;;20.41;85.35;95658.13;5069016;28;20028;-66
2022/07/23 03:01:30;;;;;;;1999.90;999.90;;;;;;;18.74;84.68;95514.72;5049772;28;20033;-66
2022/07/23 03:03:55;;;;;;;1999.90;999.90;;;;;;;20.22;84.72;95647.31;5069386;28;20457;-65
2022/07/23 03:06:21;;;;;;;1999.90;999.90;;;;;;;20.54;84.44;95660.75;5068675;28;20036;-66
2022/07/23 03:08:46;;;;;;;1999.90;999.90;;;;;;;20.41;84.30;95608.72;5051856;28;20068;-65
2022/07/23 03:11:11;;;;;;;1999.90;999.90;;;;;;;19.46;83.89;95444.34;5068184;28;20070;-65
2022/07/23 03:13:38;;;;;;;1999.90;999.90;;;;;;;20.49;83.97;95562.59;5068154;28;20100;-65
2022/07/23 03:16:04;;;;;;;1999.90;999.90;;;;;;;19.89;83.36;95472.25;5068838;28;20041;-65
2022/07/23 03:18:30;;;;;;;1999.90;999.90;;;;;;;19.89;83.13;95440.63;5067498;28;20028;-65
2022/07/23 03:20:55;;;;;;;1999.90;999.90;;;;;;;19.90;83.19;95398.22;5069072;28;20062;-65
2022/07/23 03:23:20;;;;;;;1999.90;999.90;;;;;;;20.08;82.94;95407.44;5069417;28;20024;-65
2022/07/23 03:25:49;;;;;;;1999.90;999.90;;;;;;;21.42;82.89;95645.44;5068175;28;20055;-65
2022/07/23 03:28:17;;;;;;;1999.90;999.90;;;;;;;20.67;82.26;95475.66;5068881;28;20043;-65
2022/07/23 03:30:46;;;;;;;1999.90;999.90;;;;;;;21.85;82.32;95593.88;5050788;28;20670;-66
2022/07/23 03:33:16;;;;;;;1999.90;999.90;;;;;;;20.44;82.09;95340.53;5068246;28;20025;-65
2022/07/23 03:35:43;;;;;;;1999.90;999.90;;;;;;;20.21;81.03;95325.09;5068549;28;20029;-65
2022/07/23 03:38:08;;;;;;;1999.90;999.90;;;;;;;20.76;81.97;95327.53;5069519;28;20021;-65
2022/07/23 03:40:34;;;;;;;1999.90;999.90;;;;;;;20.56;81.82;95245.00;5066963;28;20090;-65
2022/07/23 03:42:59;;;;;;;1999.90;999.90;;;;;;;20.88;78.30;95416.56;5068508;28;20540;-65
2022/07/23 03:45:25;;;;;;;1999.90;999.90;;;;;;;19.35;83.87;95443.34;5067297;28;20380;-65
2022/07/23 03:47:50;;;;;;;1999.90;999.90;;;;;;;17.89;84.98;95287.13;5049207;28;20035;-65
2022/07/23 03:50:16;;;;;;;1999.90;999.90;;;;;;;18.99;85.44;95492.97;5068594;28;20035;-65
2022/07/23 03:52:41;;;;;;;1999.90;999.90;;;;;;;20.08;84.79;95522.78;5069041;28;20104;-65
2022/07/23 03:55:07;;;;;;;1999.90;999.90;;;;;;;18.95;83.93;95261.09;5067917;28;20035;-65
2022/07/23 03:57:33;;;;;;;1999.90;999.90;;;;;;;19.78;83.85;95347.09;5068503;28;20492;-65
2022/07/23 03:59:58;;;;;;;1999.90;999.90;;;;;;;19.33;82.44;95299.97;5050512;28;20087;-65
2022/07/23 04:02:24;;;;;;;1999.90;999.90;;;;;;;20.71;81.71;95512.41;5066728;28;20024;-65
2022/07/23 04:04:49;;;;;;;1999.90;999.90;;;;;;;19.10;81.44;95340.34;5068662;28;20381;-65
2022/07/23 04:07:17;;;;;;;1999.90;999.90;;;;;;;20.50;82.51;95488.50;5069462;28;20025;-65
2022/07/23 04:09:42;;;;;;;1999.90;999.90;;;;;;;20.71;81.98;95546.78;5068672;28;20020;-65
2022/07/23 04:12:08;;;;;;;1999.90;999.90;;;;;;;20.65;82.03;95494.94;5067649;28;20081;-65
2022/07/23 04:14:33;;;;;;;1999.90;999.90;;;;;;;19.95;82.33;95343.94;5049895;28;20021;-65
2022/07/23 04:16:59;;;;;;;1999.90;999.90;;;;;;;21.37;82.38;95523.19;5067020;28;20029;-65
2022/07/23 04:19:25;;;;;;;1999.90;999.90;;;;;;;21.52;82.45;95508.72;5068515;28;20025;-67
2022/07/23 04:21:50;;;;;;;1999.90;999.90;;;;;;;;;;5050840;28;20119;-65
2022/07/23 04:24:16;;;;;;;1999.90;999.90;;;;;;;21.78;82.02;95500.56;5067764;28;20072;-65
2022/07/23 04:26:41;;;;;;;1999.90;999.90;;;;;;;21.78;81.49;95480.84;5069475;28;20033;-65
2022/07/23 04:29:07;;;;;;;1999.90;999.90;;;;;;;21.87;81.84;95477.84;5054555;28;20035;-65
2022/07/23 04:31:32;;;;;;;1999.90;999.90;;;;;;;22.03;81.55;95490.06;5069212;28;20032;-65
2022/07/23 04:33:58;;;;;;;1999.90;999.90;;;;;;;21.43;81.72;95416.19;5071883;28;20032;-64
2022/07/23 04:36:23;;;;;;;1999.90;999.90;;;;;;;21.63;81.50;95414.91;5071687;28;20051;-65
2022/07/23 04:38:48;;;;;;;1999.90;999.90;;;;;;;21.72;81.89;95431.66;5071528;28;20032;-65
2022/07/23 04:41:14;;;;;;;1999.90;999.90;;;;;;;21.78;81.79;95415.84;5070955;28;20055;-65
2022/07/23 04:43:39;;;;;;;1999.90;999.90;;;;;;;22.14;81.37;95446.84;5072051;28;20026;-65
2022/07/23 04:46:05;;;;;;;1999.90;999.90;;;;;;;22.22;80.83;95459.34;5070859;28;20032;-65
2022/07/23 04:48:31;;;;;;;1999.90;999.90;;;;;;;22.55;80.74;95501.09;5071389;28;20098;-65
2022/07/23 04:50:56;;;;;;;1999.90;999.90;;;;;;;22.63;80.84;95500.03;5070613;28;20029;-65
2022/07/23 04:53:22;;;;;;;1999.90;999.90;;;;;;;21.43;80.28;95297.09;5071772;28;20082;-65
2022/07/23 04:55:47;;;;;;;1999.90;999.90;;;;;;;21.60;80.17;95307.38;5070122;28;20024;-65
2022/07/23 04:58:13;;;;;;;1999.90;999.90;;;;;;;22.73;79.95;95464.09;5071436;28;20388;-65
2022/07/23 05:00:38;;;;;;;1999.90;999.90;;;;;;;21.33;79.20;95252.53;5069609;28;20028;-64
2022/07/23 05:03:03;;;;;;;1999.90;999.90;;;;;;;21.93;79.39;95344.44;5057748;28;20107;-65
2022/07/23 05:05:29;;;;;;;1999.90;999.90;;;;;;;22.42;79.54;95411.16;5072107;28;20473;-65
2022/07/23 05:07:54;;;;;;;1999.90;999.90;;;;;;;22.74;79.43;95459.47;5072029;28;20044;-65
2022/07/23 05:10:20;;;;;;;1999.90;999.90;;;;;;;22.56;79.46;95434.88;5070641;28;20028;-65
2022/07/23 05:12:45;;;;;;;1999.90;999.90;;;;;;;22.87;79.75;95479.69;5053525;28;20035;-64
2022/07/23 05:15:11;;;;;;;1999.90;999.90;;;;;;;22.57;79.43;95428.31;5071545;28;20029;-66
2022/07/23 05:17:36;;;;;;;1999.90;999.90;;;;;;;22.35;79.80;95402.94;5053270;28;20035;-64
2022/07/23 05:20:02;;;;;;;1999.90;999.90;;;;;;;22.71;79.33;95462.91;5071565;28;20056;-64
2022/07/23 05:22:28;;;;;;;1999.90;999.90;;;;;;;22.68;79.20;95478.00;5051649;28;20535;-64
2022/07/23 05:24:53;;;;;;;1999.90;999.90;;;;;;;22.50;79.22;95437.16;5071659;28;20043;-65
2022/07/23 05:27:19;;;;;;;1999.90;999.90;;;;;;;22.54;79.78;95454.25;5053468;28;20024;-64
2022/07/23 05:29:44;;;;;;;1999.90;999.90;;;;;;;22.52;79.05;95453.03;5070629;28;20031;-64
2022/07/23 05:32:10;;;;;;;1999.90;999.90;;;;;;;22.49;78.26;95484.41;5070995;28;20354;-64
2022/07/23 05:34:35;;;;;;;1999.90;999.90;;;;;;;22.35;79.18;95437.38;5053488;28;20488;-65
2022/07/23 05:37:00;;;;;;;1999.90;999.90;;;;;;;22.70;79.44;95483.81;5070259;28;20392;-64
2022/07/23 05:39:26;;;;;;;1999.90;999.90;;;;;;;22.67;79.44;95471.00;5071315;28;20129;-65
2022/07/23 05:41:51;;;;;;;1999.90;999.90;;;;;;;22.67;78.45;95489.97;5071199;28;20024;-64
2022/07/23 05:44:17;;;;;;;1999.90;999.90;;;;;;;22.51;77.61;95484.78;5052666;28;20020;-64
2022/07/23 05:46:42;;;;;;;1999.90;999.90;;;;;;;22.64;78.30;95495.38;5070062;28;20031;-64
2022/07/23 05:49:08;;;;;;;1999.90;999.90;;;;;;;22.73;79.01;95488.50;5071013;28;20222;-64
2022/07/23 05:51:34;;;;;;;1999.90;999.90;;;;;;;22.95;78.65;95521.28;5069956;28;20032;-64
2022/07/23 05:53:59;;;;;;;1999.90;999.90;;;;;;;22.92;78.28;95511.16;5070581;28;20051;-64
2022/07/23 05:56:24;;;;;;;1999.90;999.90;;;;;;;22.70;78.32;95494.66;5071069;28;20107;-65
2022/07/23 05:58:50;;;;;;;1999.90;999.90;;;;;;;22.57;78.04;95480.63;5052881;28;20100;-64
2022/07/23 06:01:16;;;;;;;1999.90;999.90;;;;;;;23.05;78.09;95528.72;5050674;28;20044;-65
2022/07/23 06:03:42;;;;;;;1999.90;999.90;;;;;;;22.39;78.31;95419.25;5069393;28;20094;-65
2022/07/23 06:06:07;;;;;;;1999.90;999.90;;;;;;;22.94;78.14;95498.81;5069957;28;20698;-65
2022/07/23 06:08:32;;;;;;;1999.90;999.90;;;;;;;23.31;78.15;95525.84;5070593;28;20108;-65
2022/07/23 06:10:58;;;;;;;1999.90;999.90;;;;;;;22.82;78.56;95453.69;5070558;28;20020;-65
2022/07/23 06:13:23;;;;;;;1999.90;999.90;;;;;;;23.16;78.64;95501.69;5070698;28;20021;-64
2022/07/23 06:15:49;;;;;;;1999.90;999.90;;;;;;;23.00;78.75;95472.09;5069448;28;20024;-65
2022/07/23 06:18:14;;;;;;;1999.90;999.90;;;;;;;23.10;78.67;95479.53;5052638;28;20056;-65
2022/07/23 06:20:40;;;;;;;1999.90;999.90;;;;;;;23.04;79.07;95452.00;5070305;28;20465;-65
2022/07/23 06:23:05;;;;;;;1999.90;999.90;;;;;;;23.15;78.48;95459.44;5070152;28;20473;-65
2022/07/23 06:25:31;;;;;;;1999.90;999.90;;;;;;;23.08;77.45;95469.06;5070341;28;20127;-65
2022/07/23 06:27:56;;;;;;;1999.90;999.90;;;;;;;23.01;76.02;95493.41;5070371;28;20131;-64
2022/07/23 06:30:21;;;;;;;1999.90;999.90;;;;;;;22.97;77.54;95440.28;5069049;28;20473;-65
2022/07/23 06:32:48;;;;;;;1999.90;999.90;;;;;;;23.41;77.89;95477.44;5069804;28;20431;-65
2022/07/23 06:35:13;;;;;;;1999.90;999.90;;;;;;;23.44;76.60;95446.81;5070406;28;20111;-65
2022/07/23 06:37:38;;;;;;;1999.90;999.90;;;;;;;23.26;74.61;95499.06;5051365;28;20107;-64
2022/07/23 06:40:10;;;;;;;1999.90;999.90;;;;;;;22.49;72.19;95472.78;5070025;28;20032;-64
2022/07/23 06:42:39;;;;;;;;;;;;;;;22.92;75.83;95554.56;5069462;28;20103;-64
2022/07/23 06:45:06;;;;;;;1999.90;999.90;;;;;;;22.46;76.46;95550.19;5069191;28;19916;-64
2022/07/23 06:47:31;;;;;;;1999.90;999.90;;;;;;;22.81;76.76;95552.50;5070119;28;20024;-64
2022/07/23 06:49:57;;;;;;;1999.90;999.90;;;;;;;22.99;76.72;95550.00;5051568;28;20024;-64
2022/07/23 06:52:22;;;;;;;1999.90;999.90;;;;;;;22.96;76.97;95507.34;5069416;28;20518;-64
2022/07/23 06:54:47;;;;;;;1999.90;999.90;;;;;;;22.99;75.01;95511.25;5068892;28;20729;-64
2022/07/23 06:57:13;;;;;;;1999.90;999.90;;;;;;;23.46;75.89;95570.16;5051727;28;20055;-64
2022/07/23 06:59:40;;;;;;;1999.90;999.90;;;;;;;23.56;76.86;95552.41;5068677;28;20393;-64
2022/07/23 07:02:06;;;;;;;1999.90;999.90;;;;;;;23.74;75.18;95571.53;5069366;28;20028;-64
2022/07/23 07:04:32;;;;;;;1999.90;999.90;;;;;;;23.51;73.65;95572.53;5069737;28;20025;-64
2022/07/23 07:06:57;;;;;;;1999.90;999.90;;;;;;;23.40;75.08;95517.38;5069550;28;20032;-64
2022/07/23 07:09:22;;;;;;;1999.90;999.90;;;;;;;23.77;75.82;95543.63;5069618;28;20416;-64
2022/07/23 07:11:48;;;;;;;1999.90;999.90;;;;;;;23.82;76.22;95519.59;5068386;28;20086;-65
2022/07/23 07:14:13;;;;;;;1999.90;999.90;;;;;;;24.09;76.25;95531.00;5068079;28;20020;-66
2022/07/23 07:16:38;;;;;;;1999.90;999.90;;;;;;;23.63;73.36;95552.47;5069459;28;20516;-67
2022/07/23 07:19:04;;;;;;;1999.90;999.90;;;;;;;23.25;75.20;95462.22;5068695;28;20081;-63
2022/07/23 07:21:29;;;;;;;1999.90;999.90;;;;;;;22.78;73.94;95462.97;5066387;28;20029;-64
2022/07/23 07:23:55;;;;;;;1999.90;999.90;;;;;;;22.94;70.72;95561.19;5051354;28;20027;-64
2022/07/23 07:26:20;;;;;;;1999.90;999.90;;;;;;;22.67;72.17;95527.16;5049309;28;20063;-65
2022/07/23 07:28:46;;;;;;;1999.90;999.90;;;;;;;23.12;74.57;95544.28;5068344;28;20528;-64
2022/07/23 07:31:11;;;;;;;1999.90;999.90;;;;;;;23.48;75.20;95548.06;5069302;28;20104;-65
2022/07/23 07:33:36;;;;;;;1999.90;999.90;;;;;;;23.93;76.24;95546.84;5069025;28;20025;-64
2022/07/23 07:36:02;;;;;;;1999.90;999.90;;;;;;;24.23;76.10;95549.31;5069368;28;20025;-65
2022/07/23 07:38:28;;;;;;;1999.90;999.90;;;;;;;24.35;74.51;95540.84;5067946;28;20537;-67
2022/07/23 07:40:53;;;;;;;1999.90;999.90;;;;;;;24.00;69.98;95535.22;5068293;28;20040;-64
2022/07/23 07:43:19;;;;;;;1999.90;999.90;;;;;;;23.68;74.66;95443.47;5068842;28;20044;-65
2022/07/23 07:45:44;;;;;;;1999.90;999.90;;;;;;;24.01;74.65;95444.41;5068447;28;20039;-64
2022/07/23 07:48:09;;;;;;;1999.90;999.90;;;;;;;23.99;70.15;95469.22;5069071;28;20028;-66
2022/07/23 07:50:35;;;;;;;1999.90;999.90;;;;;;;24.97;71.52;95593.47;5051191;28;20036;-65
2022/07/23 07:53:01;;;;;;;1999.90;999.90;;;;;;;24.85;70.31;95561.97;5067758;28;20027;-65
2022/07/23 07:55:28;;;;;;;1999.90;999.90;;;;;;;24.98;72.74;95541.41;5069185;28;20028;-65
2022/07/23 07:57:53;;;;;;;1999.90;999.90;;;;;;;25.00;70.25;95560.06;5069034;28;20052;-65
2022/07/23 08:00:19;;;;;;;1999.90;999.90;;;;;;;24.23;63.18;95592.03;5067876;28;20029;-65
2022/07/23 08:02:47;;;;;;;1999.90;999.90;;;;;;;24.39;69.45;95578.94;5068614;28;20059;-65
2022/07/23 08:05:13;;;;;;;1999.90;999.90;;;;;;;24.48;70.55;95526.91;5073060;28;20123;-65
2022/07/23 08:07:39;;;;;;;1999.90;999.90;;;;;;;24.22;69.91;95585.81;5071965;28;20516;-65
2022/07/23 08:10:07;;;;;;;1999.90;999.90;;;;;;;24.67;70.25;95580.97;5053839;28;20056;-67
2022/07/23 08:12:49;;;;;;;1999.90;999.90;;;;;;;23.23;64.56;95383.09;5071555;28;20063;-66
2022/07/23 08:15:17;;;;;;;1999.90;999.90;;;;;;;24.48;67.61;95586.75;5070895;28;20496;-65
2022/07/23 08:17:44;;;;;;;1999.90;999.90;;;;;;;24.58;61.42;95564.25;5053884;28;20461;-67
2022/07/23 08:20:11;;;;;;;1999.90;999.90;;;;;;;24.76;69.78;95488.09;5072599;28;20020;-66
2022/07/23 08:22:50;;;;;;;1999.90;999.90;;;;;;;25.50;67.75;95525.50;5072122;28;20111;-66
2022/07/23 08:25:19;;;;;;;1999.90;999.90;;;;;;;26.22;68.06;95591.56;5071474;28;20024;-66
2022/07/23 08:27:45;;;;;;;1999.90;999.90;;;;;;;25.93;66.84;95526.22;5054715;28;20025;-66
2022/07/23 08:30:10;;;;;;;1999.90;999.90;;;;;;;26.20;67.54;95528.44;5071670;28;20534;-67
2022/07/23 08:32:59;;;;;;;1999.90;999.90;;;;;;;27.20;67.26;95580.63;5053974;28;20032;-68
2022/07/23 08:35:31;;;;;;;1999.90;999.90;;;;;;;27.34;62.52;95557.13;5072736;28;20032;-68
2022/07/23 08:37:57;;;;;;;1999.90;999.90;;;;;;;27.76;63.04;95585.28;5071714;28;20104;-68
2022/07/23 08:40:25;;;;;;;1999.90;999.90;;;;;;;28.13;64.05;95590.78;5072028;28;20380;-63
2022/07/23 08:42:52;;;;;;;1999.90;999.90;;;;;;;28.32;63.75;95575.72;5070862;28;20086;-69
2022/07/23 08:45:20;;;;;;;1999.90;999.90;;;;;;;28.49;52.39;95584.94;5072404;28;20035;-67
2022/07/23 08:47:49;;;;;;;1999.90;999.90;;;;;;;28.37;60.40;95537.00;5072357;28;20029;-66
2022/07/23 08:50:14;;;;;;;1999.90;999.90;;;;;;;28.87;61.41;95574.69;5072227;28;20078;-67
2022/07/23 08:52:40;;;;;;;1999.90;999.90;;;;;;;29.06;59.04;95570.53;5071603;28;20481;-67
2022/07/23 08:55:06;;;;;;;1999.90;999.90;;;;;;;29.02;57.07;95558.84;5071293;28;20481;-70
2022/07/23 08:57:32;;;;;;;1999.90;999.90;;;;;;;29.38;58.20;95610.34;5053184;28;20028;-69
2022/07/23 08:59:58;;;;;;;1999.90;999.90;;;;;;;29.49;58.61;95614.50;5071142;28;20761;-67
2022/07/23 09:02:24;;;;;;;1999.90;999.90;;;;;;;28.77;48.33;95537.28;5071540;28;20047;-70
2022/07/23 09:04:49;;;;;;;1999.90;999.90;;;;;;;28.67;46.77;95614.84;5071699;28;20457;-69
2022/07/23 09:07:15;;;;;;;1999.90;999.90;;;;;;;28.04;47.71;95634.22;5071925;28;20051;-68
2022/07/23 09:09:41;;;;;;;1999.90;999.90;;;;;;;26.14;52.49;95630.91;5070771;28;20108;-66
2022/07/23 09:12:09;;;;;;;1999.90;999.90;;;;;;;25.61;54.36;95626.28;5071012;28;20031;-69
2022/07/23 09:14:48;;;;;;;1999.90;999.90;;;;;;;25.06;55.55;95599.34;5069365;28;20557;-69
2022/07/23 09:17:17;;;;;;;1999.90;999.90;;;;;;;25.35;55.31;95497.50;5071858;28;20365;-70
2022/07/23 09:19:45;;;;;;;1999.90;999.90;;;;;;;25.37;53.63;95502.53;5053647;28;20497;-69
2022/07/23 09:22:26;;;;;;;1999.90;999.90;;;;;;;26.16;52.83;95595.88;5071296;28;20533;-69
2022/07/23 09:25:16;;;;;;;1999.90;999.90;;;;;;;26.81;53.65;95457.22;5071603;28;20500;-71
2022/07/23 09:27:46;;;;;;;1999.90;999.90;;;;;;;27.13;49.50;95519.81;5052716;28;20028;-72
2022/07/23 09:30:12;;;;;;;1999.90;999.90;;;;;;;27.41;48.59;95617.16;5071534;28;20484;-71
2022/07/23 09:32:39;;;;;;;1999.90;999.90;;;;;;;27.63;49.62;95650.56;5070853;28;20070;-72
2022/07/23 09:35:05;;;;;;;1999.90;999.90;;;;;;;26.79;49.70;95475.97;5053401;28;20020;-71
2022/07/23 09:37:30;;;;;;;1999.90;999.90;;;;;;;27.32;49.70;95519.25;5071362;28;20038;-71
2022/07/23 09:40:08;;;;;;;1999.90;999.90;;;;;;;28.75;52.20;95657.34;5071374;28;20029;-72
2022/07/23 09:42:34;;;;;;;1999.90;999.90;;;;;;;29.41;50.30;95645.16;5051991;28;20048;-72
2022/07/23 09:45:00;;;;;;;1999.90;999.90;;;;;;;28.63;45.30;95524.56;5070997;28;20077;-79
2022/07/23 09:47:28;;;;;;;1999.90;999.90;;;;;;;28.24;44.83;95645.38;5053301;28;20070;-71
2022/07/23 09:50:11;;;;;;;1999.90;999.90;;;;;;;28.81;43.15;95643.97;5052060;28;20373;-69
2022/07/23 09:52:56;;;;;;;1999.90;999.90;;;;;;;27.79;44.80;95601.63;5050706;28;20105;-68
2022/07/23 09:55:36;;;;;;;1999.90;999.90;;;;;;;27.54;42.96;95547.19;5050617;28;20095;-67
2022/07/23 09:58:02;;;;;;;1999.90;999.90;;;;;;;26.26;45.04;95507.00;5061958;28;20074;-67
2022/07/23 10:00:29;;;;;;;1999.90;999.90;;;;;;;27.48;45.79;95598.75;5052802;28;20056;-65
2022/07/23 10:02:55;;;;;;;1999.90;999.90;;;;;;;26.62;44.38;95524.03;5069559;28;20060;-65
2022/07/23 10:05:21;;;;;;;1999.90;999.90;;;;;;;28.26;44.46;95599.25;5070838;28;20025;-68
2022/07/23 10:07:48;;;;;;;1999.90;999.90;;;;;;;28.40;40.97;95609.28;5070949;28;20484;-66
2022/07/23 10:10:18;;;;;;;1999.90;999.90;;;;;;;28.08;41.94;95613.09;5052914;28;20028;-64
2022/07/23 10:13:03;;;;;;;1999.90;999.90;;;;;;;27.06;42.78;95547.91;5051416;28;20058;-66
2022/07/23 10:15:28;;;;;;;1999.90;999.90;;;;;;;27.02;42.82;95592.78;5070490;28;20028;-69
2022/07/23 10:17:54;;;;;;;1999.90;999.90;;;;;;;25.98;42.97;95390.69;5070644;28;20146;-69
2022/07/23 10:20:20;;;;;;;1999.90;999.90;;;;;;;26.89;43.06;95551.53;5070333;28;20056;-67
2022/07/23 10:23:16;;;;;;;1999.90;999.90;;;;;;;26.97;43.10;95542.13;5070201;28;20056;-65
2022/07/23 10:25:49;;;;;;;1999.90;999.90;;;;;;;26.86;43.35;95536.72;5068860;28;20094;-65
2022/07/23 10:28:33;;;;;;;1999.90;999.90;;;;;;;27.56;42.29;95615.09;5068195;28;20128;-64
2022/07/23 10:31:48;;;;;;;1999.90;999.90;;;;;;;26.95;41.73;95485.19;5069298;28;20024;-65
2022/07/23 10:34:32;;;;;;;1999.90;999.90;;;;;;;28.20;40.56;95609.06;5035065;28;20421;-67
2022/07/23 10:37:07;;;;;;;1999.90;999.90;;;;;;;27.58;41.33;95593.59;5069506;28;20067;-65
2022/07/23 10:39:34;;;;;;;1999.90;999.90;;;;;;;27.29;39.84;95416.28;5070186;28;20036;-67
2022/07/23 10:42:17;;;;;;;1999.90;999.90;;;;;;;29.31;38.73;95594.81;5068223;28;20021;-66
2022/07/23 10:44:47;;;;;;;1999.90;999.90;;;;;;;29.32;37.11;95541.56;5069880;28;20052;-66
2022/07/23 10:47:40;;;;;;;1999.90;999.90;;;;;;;30.80;34.53;95587.91;5069885;28;20094;-66
2022/07/23 10:50:34;;;;;;;1999.90;999.90;;;;;;;29.54;36.54;95602.31;5069016;28;20025;-66
2022/07/23 10:53:09;;;;;;;1999.90;999.90;;;;;;;30.08;36.13;95602.19;5068484;28;20020;-66
2022/07/23 10:55:34;;;;;;;1999.90;999.90;;;;;;;30.76;35.18;95596.22;5067389;28;20128;-65